Terminal Aerodrome Forecast
Issued by NWS Charleston, WV

Current Version | Previous Version | Graphics & Text | Print | Product List | Glossary On
Versions: 1 2 3 4 5 6 7 8 9 10 11 12 13 14 15 16 17 18 19 20 21 22 23 24 25 26 27
286
FTUS41 KRLX 180807 AAA
TAFPKB
TAF AMD
KPKB 180807Z 1808/1906 26007KT 6SM -DZ BR OVC025
      TEMPO 1808/1810 OVC010
     FM181100 28007KT 6SM BR OVC030
     FM181400 29005KT P6SM BKN035
     FM181800 19004KT P6SM SCT035
     FM182000 18004KT P6SM SCT150=

USA.gov is the U.S. government's official web portal to all federal, state and local government web resources and services.